General Aviation Weather

Text Reports

Enter one or more of the following location identifiers separated by a space:

Zip Code, Four-Character ICAO or Three-Character IATA airport codes.

METAR - Aviation Routine Weather Report
- ,
Updated at ():
No METAR is currently available for this location.
TAF - Terminal Area Forecast
- ,
Updated at ():
TAF LTBA 030440Z 0306/0412 33008KT CAVOK TEMPO 0306/0309 SCT030=
Decoded:
ID: LTBA   Istanbul/Atatur, TU
REPORT TIME:  3  4:40
VALID TIME: 3 December AT 06:00Z to 4 December AT 12:00Z.
INITIAL WX
   WINDS: 330 AT 8
   WEATHER: CAVOK
TEMPORARY WX FROM 06Z TO 09Z
   CLOUDS: 30 SCT
   COMMENTS: = 

PIREP - Pilot Weather Report
- ,
Updated at ():
No PIREP is currently available for this location.
AIRMET - Airmens Meteorological Information
- ,
Updated at ():
No AIRMET is currently available for this location.
SIGMET - Significant Meteorological Information
- ,
Updated at ():
No SIGMET is currently available for this location.
NOTAM - Notice to Airmen
- ,
Updated at ():
No NOTAM is currently available for this location.
Forecast Area
- ,
Updated at ():
No NOTAM is currently available for this location.
Aviation Weather Maps